Time;durP1;ratioP1;P1;durP2;ratioP2;P2;SDS_P1;SDS_P2;PMS_P1;PMS_P2;Temp;Humidity;BMP_temperature;BMP_pressure;BME280_temperature;BME280_humidity;BME280_pressure;Samples;Min_cycle;Max_cycle;Signal;HPM_P1;HPM_P2
2021/04/14 00:02:19;;;;;;;2.33;1.70;;;;;;;0.00;58.09;97585.50;5046355;28;20496;-76
2021/04/14 00:04:45;;;;;;;2.53;1.80;;;;;;;0.00;58.03;97582.94;5043682;28;20389;-77
2021/04/14 00:07:13;;;;;;;2.13;1.80;;;;;;;-0.01;58.16;97584.66;5046947;28;20033;-79
2021/04/14 00:09:39;;;;;;;1.73;1.48;;;;;;;0.01;58.24;97579.41;5048969;28;20034;-77
2021/04/14 00:12:06;;;;;;;3.30;1.60;;;;;;;-0.02;58.10;97571.91;5045886;28;20037;-77
2021/04/14 00:14:32;;;;;;;1.70;1.50;;;;;;;-0.03;58.29;97573.66;5042390;28;20049;-77
2021/04/14 00:16:59;;;;;;;2.55;1.70;;;;;;;-0.04;58.40;97576.38;5043331;28;20482;-78
2021/04/14 00:19:25;;;;;;;3.22;1.75;;;;;;;-0.06;58.17;97571.34;5046335;28;20064;-78
2021/04/14 00:21:51;;;;;;;2.03;1.30;;;;;;;-0.03;58.65;97567.69;5051490;28;20474;-78
2021/04/14 00:24:19;;;;;;;2.13;1.50;;;;;;;-0.03;58.62;97565.91;5044402;28;20044;-78
2021/04/14 00:26:45;;;;;;;1.60;1.38;;;;;;;-0.03;58.43;97559.94;5042269;28;20052;-78
2021/04/14 00:29:12;;;;;;;2.65;1.50;;;;;;;-0.05;58.63;97565.22;5049004;28;20037;-78
2021/04/14 00:31:39;;;;;;;1.85;1.55;;;;;;;-0.06;58.29;97562.78;5050780;28;20037;-78
2021/04/14 00:34:28;;;;;;;2.28;1.70;;;;;;;-0.07;58.87;97555.97;5041290;28;20052;-78
2021/04/14 00:36:54;;;;;;;1.70;1.55;;;;;;;-0.09;58.48;97563.84;5041316;28;20508;-78
2021/04/14 00:39:25;;;;;;;3.20;1.48;;;;;;;-0.10;58.88;97569.13;5042240;28;20462;-78
2021/04/14 00:41:54;;;;;;;1.70;1.52;;;;;;;-0.12;58.94;97561.50;5049408;28;20033;-78
2021/04/14 00:44:21;;;;;;;2.50;1.52;;;;;;;-0.12;58.76;97564.09;5048057;28;20052;-77
2021/04/14 00:46:48;;;;;;;3.97;1.52;;;;;;;-0.13;58.57;97559.06;5041468;28;20450;-78
2021/04/14 00:49:14;;;;;;;2.50;1.63;;;;;;;-0.12;58.74;97561.50;5041359;28;20057;-77
2021/04/14 00:51:42;;;;;;;2.30;1.67;;;;;;;-0.13;58.95;97554.69;5047108;28;20058;-77
2021/04/14 00:54:11;;;;;;;1.92;1.50;;;;;;;-0.16;59.09;97557.53;5050120;28;20042;-78
2021/04/14 00:56:37;;;;;;;2.05;1.80;;;;;;;-0.19;59.06;97544.88;5045779;28;20037;-79
2021/04/14 00:59:04;;;;;;;1.58;1.40;;;;;;;-0.20;58.92;97553.56;5040518;28;20042;-76
2021/04/14 01:01:30;;;;;;;1.83;1.48;;;;;;;-0.22;58.81;97540.81;5046813;28;20045;-77
2021/04/14 01:03:56;;;;;;;3.40;1.80;;;;;;;-0.26;59.00;97539.41;5026680;28;20037;-76
2021/04/14 01:06:25;;;;;;;1.90;1.70;;;;;;;-0.29;59.30;97549.97;5044728;28;20052;-76
2021/04/14 01:08:52;;;;;;;2.20;1.63;;;;;;;-0.30;59.07;97543.16;5044277;28;20043;-77
2021/04/14 01:11:24;;;;;;;2.60;1.90;;;;;;;-0.31;59.26;97530.44;5048028;28;20435;-77
2021/04/14 01:13:51;;;;;;;4.28;1.75;;;;;;;-0.33;59.24;97527.16;5045543;28;20036;-77
2021/04/14 01:16:17;;;;;;;2.00;1.80;;;;;;;-0.30;59.29;97537.19;5040760;28;20489;-77
2021/04/14 01:18:44;;;;;;;2.10;1.63;;;;;;;-0.31;59.13;97526.09;5048843;28;20423;-77
2021/04/14 01:21:38;;;;;;;4.97;1.90;;;;;;;-0.27;60.15;97539.56;5047594;28;20040;-77
2021/04/14 01:24:19;;;;;;;3.17;2.47;;;;;;;-0.27;59.49;97530.06;5023102;28;20052;-77
2021/04/14 01:26:45;;;;;;;3.80;2.97;;;;;;;-0.26;59.53;97528.28;5041880;28;20382;-77
2021/04/14 01:29:12;;;;;;;3.08;2.30;;;;;;;-0.25;59.64;97524.78;5044747;28;20494;-78
2021/04/14 01:31:39;;;;;;;4.20;2.47;;;;;;;-0.25;59.68;97533.31;5027392;28;20036;-78
2021/04/14 01:34:08;;;;;;;4.55;2.70;;;;;;;-0.23;59.65;97531.44;5043497;28;20500;-79
2021/04/14 01:36:34;;;;;;;5.30;2.88;;;;;;;-0.21;59.90;97533.88;5039156;28;20033;-76
2021/04/14 01:39:01;;;;;;;4.30;2.92;;;;;;;-0.24;59.73;97534.13;5043089;28;20068;-77
2021/04/14 01:41:27;;;;;;;2.78;2.40;;;;;;;-0.24;59.54;97536.72;5043584;28;20033;-77
2021/04/14 01:43:53;;;;;;;3.30;2.63;;;;;;;-0.23;59.76;97534.03;5045413;28;20041;-79
2021/04/14 01:46:19;;;;;;;2.40;2.20;;;;;;;-0.27;59.91;97522.31;5027541;28;21004;-80
2021/04/14 01:48:46;;;;;;;3.65;2.72;;;;;;;-0.30;59.96;97517.41;5040270;28;20421;-79
2021/04/14 01:51:18;;;;;;;2.47;2.20;;;;;;;-0.34;59.92;97517.78;5025817;28;20049;-78
2021/04/14 01:53:46;;;;;;;2.58;2.35;;;;;;;-0.38;59.82;97519.75;5048757;28;20394;-77
2021/04/14 01:56:14;;;;;;;2.95;2.42;;;;;;;-0.41;60.03;97520.84;5045293;28;20045;-77
2021/04/14 01:58:42;;;;;;;2.30;2.10;;;;;;;-0.44;59.93;97523.66;5042991;28;20057;-78
2021/04/14 02:01:08;;;;;;;2.88;2.00;;;;;;;-0.46;60.14;97519.59;5040033;28;20064;-78
2021/04/14 02:03:38;;;;;;;3.05;1.88;;;;;;;-0.46;60.27;97514.44;5022425;28;20048;-79
2021/04/14 02:06:06;;;;;;;2.90;1.85;;;;;;;-0.49;60.11;97525.78;5044988;28;20343;-80
2021/04/14 02:08:32;;;;;;;2.42;2.17;;;;;;;-0.51;60.24;97519.94;5045406;28;20070;-77
2021/04/14 02:10:59;;;;;;;3.47;2.08;;;;;;;-0.53;60.24;97521.00;5042872;28;20050;-77
2021/04/14 02:13:29;;;;;;;2.35;2.15;;;;;;;-0.56;60.28;97519.47;5042267;28;20045;-77
2021/04/14 02:15:56;;;;;;;2.47;2.15;;;;;;;-0.59;60.35;97511.16;5047077;28;20045;-77
2021/04/14 02:18:22;;;;;;;2.22;1.90;;;;;;;-0.61;60.62;97508.69;5043174;28;20493;-76
2021/04/14 02:20:50;;;;;;;3.63;1.92;;;;;;;-0.63;60.39;97508.84;5025625;28;20115;-76
2021/04/14 02:23:28;;;;;;;2.53;1.88;;;;;;;-0.64;60.50;97516.69;5041679;28;20036;-77
2021/04/14 02:25:59;;;;;;;2.78;2.00;;;;;;;-0.67;61.01;97510.03;5043658;28;20036;-76
2021/04/14 02:28:25;;;;;;;2.30;2.10;;;;;;;-0.68;60.78;97503.22;5043762;28;20497;-77
2021/04/14 02:30:52;;;;;;;2.80;2.20;;;;;;;-0.70;60.70;97509.44;5043494;28;20056;-76
2021/04/14 02:33:19;;;;;;;2.47;2.20;;;;;;;-0.75;60.88;97504.66;5048104;28;20033;-78
2021/04/14 02:35:47;;;;;;;2.53;2.20;;;;;;;-0.76;60.91;97503.00;5041101;28;20045;-77
2021/04/14 02:38:13;;;;;;;5.47;2.78;;;;;;;-0.78;60.82;97504.88;5038812;28;20037;-78
2021/04/14 02:40:40;;;;;;;4.30;2.90;;;;;;;-0.81;60.86;97505.13;5042428;28;20064;-76
2021/04/14 02:43:07;;;;;;;4.93;2.75;;;;;;;-0.85;60.76;97499.41;5049275;28;20048;-77
2021/04/14 02:45:36;;;;;;;2.70;2.50;;;;;;;-0.90;61.11;97496.38;5025786;28;20037;-76
2021/04/14 02:48:03;;;;;;;5.60;2.45;;;;;;;-0.92;61.00;97494.88;5038392;28;20053;-76
2021/04/14 02:50:30;;;;;;;4.20;2.95;;;;;;;-0.95;61.10;97492.53;5043484;28;20508;-76
2021/04/14 02:52:58;;;;;;;3.35;2.63;;;;;;;-0.99;61.08;97488.53;5044519;28;20044;-76
2021/04/14 02:55:27;;;;;;;3.40;2.47;;;;;;;-1.03;60.92;97481.06;5042690;28;20029;-76
2021/04/14 02:57:53;;;;;;;3.15;1.92;;;;;;;-1.05;61.00;97476.97;5044370;28;20042;-77
2021/04/14 03:00:22;;;;;;;2.72;1.70;;;;;;;-1.08;61.44;97479.78;5045274;28;20045;-76
2021/04/14 03:02:49;;;;;;;2.75;2.13;;;;;;;-1.10;61.38;97486.81;5040181;28;20032;-76
2021/04/14 03:05:20;;;;;;;2.53;1.65;;;;;;;-1.12;61.65;97479.19;5045019;28;20056;-76
2021/04/14 03:07:46;;;;;;;1.90;1.80;;;;;;;-1.13;61.50;97480.16;5045863;28;20029;-77
2021/04/14 03:10:14;;;;;;;2.65;2.10;;;;;;;-1.11;61.74;97483.41;5039783;28;20132;-76
2021/04/14 03:12:49;;;;;;;1.65;1.55;;;;;;;-1.10;61.70;97477.31;5027103;28;20038;-76
2021/04/14 03:15:17;;;;;;;2.67;1.98;;;;;;;-1.11;61.74;97473.13;5046085;28;20033;-77
2021/04/14 03:17:44;;;;;;;1.88;1.70;;;;;;;-1.11;61.40;97473.13;5047483;28;20044;-77
2021/04/14 03:20:10;;;;;;;2.40;1.80;;;;;;;-1.10;61.71;97467.03;5047823;28;20450;-76
2021/04/14 03:22:37;;;;;;;5.40;2.10;;;;;;;-1.09;61.66;97466.09;5044853;28;20417;-77
2021/04/14 03:25:04;;;;;;;4.20;2.10;;;;;;;-1.09;61.67;97472.97;5045678;28;20041;-78
2021/04/14 03:27:31;;;;;;;3.83;2.03;;;;;;;-1.08;61.81;97477.22;5051470;28;20465;-78
2021/04/14 03:29:59;;;;;;;3.00;2.00;;;;;;;-1.07;61.85;97469.38;5042764;28;20044;-78
2021/04/14 03:32:25;;;;;;;2.25;1.90;;;;;;;-1.06;61.79;97472.75;5045652;28;20037;-78
2021/04/14 03:34:51;;;;;;;2.78;1.80;;;;;;;-1.08;61.58;97467.72;5046564;28;20068;-78
2021/04/14 03:37:17;;;;;;;3.78;1.90;;;;;;;-1.09;61.54;97466.09;5031904;28;20045;-78
2021/04/14 03:39:44;;;;;;;2.55;1.70;;;;;;;-1.11;61.65;97469.75;5045050;28;20055;-78
2021/04/14 03:42:10;;;;;;;3.75;2.10;;;;;;;-1.14;61.70;97473.34;5025572;28;20068;-78
2021/04/14 03:44:37;;;;;;;4.82;2.30;;;;;;;-1.19;61.69;97466.94;5052341;28;20037;-78
2021/04/14 03:47:04;;;;;;;2.70;2.50;;;;;;;-1.22;61.55;97465.41;5045932;28;20041;-78
2021/04/14 03:49:31;;;;;;;3.10;2.35;;;;;;;-1.25;61.86;97466.47;5046438;28;20064;-78
2021/04/14 03:51:58;;;;;;;3.47;2.80;;;;;;;-1.27;62.01;97470.09;5042210;28;20405;-78
2021/04/14 03:54:33;;;;;;;2.58;2.30;;;;;;;-1.28;61.99;97463.28;5044849;28;20049;-76
2021/04/14 03:57:00;;;;;;;4.22;2.60;;;;;;;-1.29;62.09;97466.81;5047038;28;20505;-75
2021/04/14 03:59:26;;;;;;;2.95;2.42;;;;;;;-1.30;62.08;97468.59;5045894;28;20050;-76
2021/04/14 04:01:54;;;;;;;2.72;2.10;;;;;;;-1.32;62.01;97470.47;5030946;28;20032;-77
2021/04/14 04:04:22;;;;;;;5.13;2.80;;;;;;;-1.34;62.07;97474.09;5032553;28;20390;-76
2021/04/14 04:06:48;;;;;;;2.92;2.50;;;;;;;-1.34;62.03;97476.66;5045200;28;20041;-76
2021/04/14 04:09:15;;;;;;;2.97;2.65;;;;;;;-1.38;62.57;97473.50;5047341;28;20033;-76
2021/04/14 04:11:41;;;;;;;2.47;2.28;;;;;;;-1.40;62.48;97472.78;5047163;28;20049;-77
2021/04/14 04:14:07;;;;;;;2.97;2.70;;;;;;;-1.44;62.28;97474.78;5042602;28;20405;-76
2021/04/14 04:16:34;;;;;;;4.55;2.72;;;;;;;-1.48;62.39;97475.94;5041681;28;20062;-76
2021/04/14 04:19:00;;;;;;;2.90;2.25;;;;;;;-1.50;62.35;97472.66;5047436;28;20470;-76
2021/04/14 04:21:26;;;;;;;5.50;2.70;;;;;;;-1.53;62.61;97454.91;5050505;28;20397;-77
2021/04/14 04:23:52;;;;;;;4.43;2.78;;;;;;;-1.52;62.14;97464.25;5026525;28;20037;-76
2021/04/14 04:26:20;;;;;;;3.35;3.08;;;;;;;-1.52;62.81;97466.00;5040093;28;20044;-77
2021/04/14 04:28:46;;;;;;;4.00;2.63;;;;;;;-1.54;62.62;97468.69;5030567;28;20041;-76
2021/04/14 04:31:12;;;;;;;3.47;2.80;;;;;;;-1.54;62.70;97460.97;5032681;28;20044;-76
2021/04/14 04:33:39;;;;;;;5.32;3.08;;;;;;;-1.56;62.64;97465.41;5040512;28;20033;-76
2021/04/14 04:36:05;;;;;;;3.17;2.50;;;;;;;-1.56;62.79;97459.47;5028331;28;20037;-76
2021/04/14 04:38:33;;;;;;;4.88;2.30;;;;;;;-1.56;62.96;97468.00;5044938;28;20033;-77
2021/04/14 04:41:01;;;;;;;4.00;2.70;;;;;;;-1.54;62.70;97468.69;5045055;28;20489;-78
2021/04/14 04:43:29;;;;;;;3.50;2.45;;;;;;;-1.52;62.76;97466.00;5043994;28;20057;-77
2021/04/14 04:45:56;;;;;;;3.75;2.45;;;;;;;-1.53;62.81;97466.97;5023313;28;20040;-78
2021/04/14 04:48:29;;;;;;;4.57;2.47;;;;;;;-1.52;63.04;97474.53;5045484;28;20045;-76
2021/04/14 04:50:58;;;;;;;5.18;2.38;;;;;;;-1.48;63.17;97469.97;5070105;28;20045;-76
2021/04/14 04:53:25;;;;;;;4.47;2.20;;;;;;;-1.45;63.08;97470.59;5064147;28;20052;-76
2021/04/14 04:55:52;;;;;;;2.80;2.28;;;;;;;-1.43;63.29;97473.00;5061085;28;20033;-78
2021/04/14 04:58:25;;;;;;;4.43;2.10;;;;;;;-1.42;63.00;97469.53;5043722;28;20055;-76
2021/04/14 05:00:51;;;;;;;2.63;2.42;;;;;;;-1.38;63.07;97476.06;5064715;28;20050;-77
2021/04/14 05:03:20;;;;;;;6.85;2.60;;;;;;;-1.36;63.09;97476.78;5063682;28;20037;-77
2021/04/14 05:05:46;;;;;;;4.25;2.25;;;;;;;-1.34;63.14;97476.66;5062982;28;20040;-78
2021/04/14 05:08:13;;;;;;;2.38;1.95;;;;;;;-1.31;63.29;97479.00;5062679;28;20040;-77
2021/04/14 05:10:39;;;;;;;2.50;2.10;;;;;;;-1.26;62.91;97474.28;5064870;28;20041;-76
2021/04/14 05:13:07;;;;;;;4.38;2.60;;;;;;;-0.97;63.47;97490.06;5063272;28;20072;-77
2021/04/14 05:15:35;;;;;;;4.13;2.80;;;;;;;-0.39;63.88;97483.81;5069818;28;20033;-78
2021/04/14 05:18:20;;;;;;;3.90;2.65;;;;;;;0.37;63.62;97487.03;5063884;28;20048;-77
2021/04/14 05:20:47;;;;;;;2.90;2.47;;;;;;;1.02;63.02;97487.56;5059207;28;20036;-78
2021/04/14 05:23:22;;;;;;;8.05;2.70;;;;;;;1.63;62.59;97491.72;5064437;28;20068;-78
2021/04/14 05:25:48;;;;;;;3.15;2.90;;;;;;;2.16;61.84;97480.13;5070871;28;20029;-79
2021/04/14 05:28:24;;;;;;;2.60;2.40;;;;;;;2.66;61.20;97477.25;5066665;28;20048;-77
2021/04/14 05:30:51;;;;;;;3.30;2.30;;;;;;;3.11;60.83;97467.91;5064237;28;20059;-79
2021/04/14 05:33:18;;;;;;;2.97;2.70;;;;;;;3.52;60.05;97466.53;5063134;28;20053;-81
2021/04/14 05:35:50;;;;;;;3.22;2.83;;;;;;;3.94;59.46;97465.91;5060023;28;20040;-79
2021/04/14 05:38:25;;;;;;;4.53;3.38;;;;;;;4.37;58.85;97456.47;5064827;28;20063;-78
2021/04/14 05:40:51;;;;;;;6.13;3.78;;;;;;;4.76;58.11;97463.00;5064128;28;20043;-79
2021/04/14 05:43:36;;;;;;;4.50;3.60;;;;;;;5.16;54.28;97425.91;5061237;28;20053;-78
2021/04/14 05:46:06;;;;;;;4.15;3.20;;;;;;;5.54;56.70;97451.50;5068120;28;20060;-78
2021/04/14 05:48:34;;;;;;;6.32;3.50;;;;;;;5.85;54.89;97438.69;5054174;28;20500;-81
2021/04/14 05:51:05;;;;;;;5.13;3.33;;;;;;;5.95;55.10;97438.56;5040261;28;20048;-77
2021/04/14 05:53:33;;;;;;;4.50;3.60;;;;;;;6.19;54.65;97448.91;5042524;28;20038;-78
2021/04/14 05:56:00;;;;;;;5.65;4.38;;;;;;;6.16;53.93;97443.25;5038493;28;20036;-78
2021/04/14 05:58:33;;;;;;;5.20;3.90;;;;;;;6.18;53.57;97441.28;5044426;28;20423;-78
2021/04/14 06:00:59;;;;;;;4.40;3.88;;;;;;;6.38;53.10;97442.53;5042975;28;20033;-79
2021/04/14 06:03:26;;;;;;;4.40;3.50;;;;;;;6.58;53.11;97435.16;5044713;28;20457;-79
2021/04/14 06:05:57;;;;;;;4.80;3.83;;;;;;;6.86;49.98;97430.31;5037964;28;20386;-79
2021/04/14 06:08:27;;;;;;;4.18;3.70;;;;;;;7.00;51.38;97431.41;5041763;28;20041;-80
2021/04/14 06:10:56;;;;;;;3.65;3.35;;;;;;;7.26;51.42;97432.91;5050178;28;20044;-77
2021/04/14 06:13:32;;;;;;;4.28;3.85;;;;;;;7.51;50.45;97428.34;5047253;28;20037;-77
2021/04/14 06:16:06;;;;;;;3.60;3.30;;;;;;;7.68;48.50;97437.66;5042905;28;20048;-77
2021/04/14 06:18:42;;;;;;;3.38;3.08;;;;;;;7.86;49.68;97441.78;5020871;28;20052;-77
2021/04/14 06:21:09;;;;;;;3.88;3.55;;;;;;;8.13;49.06;97449.06;5039111;28;20050;-79
2021/04/14 06:23:36;;;;;;;5.18;3.90;;;;;;;8.37;48.52;97449.00;5038555;28;20052;-80
2021/04/14 06:28:36;;;;;;;3.40;2.72;;;;;;;8.89;47.16;97456.78;5043007;28;20473;-80
2021/04/14 06:31:03;;;;;;;4.60;2.97;;;;;;;9.19;46.79;97466.41;5026334;28;20045;-80
2021/04/14 06:33:35;;;;;;;2.60;1.75;;;;;;;9.32;45.77;97454.28;5046812;28;20053;-81
2021/04/14 06:36:01;;;;;;;2.50;1.65;;;;;;;9.28;45.25;97458.25;5010947;28;20041;-79
2021/04/14 06:38:34;;;;;;;2.65;1.65;;;;;;;9.24;44.61;97462.25;5049075;28;20422;-79
2021/04/14 06:41:52;;;;;;;3.08;1.90;;;;;;;9.22;43.41;97481.72;5036632;28;20049;-79
2021/04/14 06:44:41;;;;;;;4.32;1.80;;;;;;;9.19;42.90;97475.06;5042025;28;20033;-78
2021/04/14 06:47:16;;;;;;;3.80;1.88;;;;;;;9.08;41.93;97475.53;5042274;28;20474;-79
2021/04/14 06:50:00;;;;;;;3.13;1.60;;;;;;;8.98;41.36;97473.19;5045756;28;20056;-79
2021/04/14 06:52:42;;;;;;;4.00;2.00;;;;;;;8.92;40.62;97456.44;5042488;28;20056;-79
2021/04/14 06:55:17;;;;;;;2.55;1.80;;;;;;;8.96;41.25;97472.56;5042981;28;20462;-79
2021/04/14 06:57:53;;;;;;;3.10;2.13;;;;;;;9.01;41.50;97475.47;5041586;28;20041;-79
2021/04/14 07:00:29;;;;;;;3.05;1.58;;;;;;;9.16;41.40;97469.41;5026508;28;20042;-79
2021/04/14 07:03:07;;;;;;;1.85;1.75;;;;;;;9.25;41.13;97481.38;5043060;28;20045;-79
2021/04/14 07:05:37;;;;;;;2.67;1.70;;;;;;;9.47;40.81;97475.19;5016857;28;20052;-79
2021/04/14 07:08:09;;;;;;;3.95;1.98;;;;;;;9.61;40.23;97465.63;5043897;28;20029;-79
2021/04/14 07:10:36;;;;;;;2.38;1.77;;;;;;;9.70;40.78;97466.31;5022960;28;20037;-79
2021/04/14 07:13:11;;;;;;;6.93;1.50;;;;;;;9.69;40.54;97472.56;5028851;28;20049;-79
2021/04/14 07:15:38;;;;;;;3.42;1.70;;;;;;;9.52;40.18;97464.16;5043767;28;20392;-79
2021/04/14 07:18:10;;;;;;;3.17;1.98;;;;;;;9.43;39.06;97463.47;5042539;28;20060;-79
2021/04/14 07:20:58;;;;;;;3.15;1.75;;;;;;;9.53;39.24;97463.97;5044396;28;20033;-79
2021/04/14 07:23:36;;;;;;;2.28;1.48;;;;;;;9.66;38.84;97462.44;5044921;28;20367;-79
2021/04/14 07:26:19;;;;;;;4.05;2.20;;;;;;;9.57;38.70;97448.69;5047716;28;20033;-79
2021/04/14 07:29:05;;;;;;;1.83;1.60;;;;;;;9.05;38.67;97460.19;5007785;28;20413;-79
2021/04/14 07:31:43;;;;;;;3.25;1.65;;;;;;;8.43;39.55;97462.19;5042545;28;20458;-79
2021/04/14 07:34:47;;;;;;;3.08;1.98;;;;;;;8.45;40.25;97467.25;5020834;28;20049;-79
2021/04/14 07:37:36;;;;;;;5.03;2.00;;;;;;;8.67;39.85;97457.69;5042175;28;20390;-80
2021/04/14 07:40:52;;;;;;;3.85;1.70;;;;;;;8.96;39.45;97461.28;5042497;28;20037;-79
2021/04/14 07:43:25;;;;;;;4.88;1.60;;;;;;;9.14;39.88;97453.88;5013503;28;20055;-80
2021/04/14 07:45:52;;;;;;;5.18;2.25;;;;;;;9.38;39.79;97452.72;5039949;28;20045;-80
2021/04/14 07:48:31;;;;;;;6.00;2.25;;;;;;;9.50;39.37;97453.06;5035617;28;20049;-79
2021/04/14 07:51:00;;;;;;;4.05;1.85;;;;;;;9.65;39.47;97453.78;5059063;28;20056;-79
2021/04/14 07:53:36;;;;;;;4.35;1.75;;;;;;;9.85;38.71;97445.31;5068358;28;20409;-79
2021/04/14 07:56:07;;;;;;;2.70;2.08;;;;;;;10.10;38.98;97443.09;5041501;28;20028;-79
2021/04/14 07:58:38;;;;;;;2.05;1.85;;;;;;;10.27;38.79;97436.59;5061278;28;20033;-79
2021/04/14 08:01:16;;;;;;;2.53;1.40;;;;;;;10.60;40.86;97450.94;5068346;28;20060;-79
2021/04/14 08:03:43;;;;;;;2.00;1.80;;;;;;;10.83;38.17;97454.06;5070332;28;20492;-78
2021/04/14 08:06:25;;;;;;;2.97;2.03;;;;;;;10.97;36.97;97447.09;5066098;28;20469;-79
2021/04/14 08:08:53;;;;;;;2.53;1.58;;;;;;;11.21;38.29;97444.94;5053096;28;20032;-79
2021/04/14 08:11:32;;;;;;;3.70;1.98;;;;;;;11.37;36.54;97440.16;5064541;28;20044;-79
2021/04/14 08:14:19;;;;;;;3.85;2.00;;;;;;;11.41;36.47;97437.94;5065705;28;20049;-78
2021/04/14 08:16:49;;;;;;;1.42;1.33;;;;;;;11.36;37.32;97435.13;5059715;28;20082;-78
2021/04/14 08:19:19;;;;;;;2.88;1.60;;;;;;;11.50;37.38;97447.25;5066601;28;20044;-79
2021/04/14 08:22:16;;;;;;;3.03;1.50;;;;;;;11.60;35.40;97425.06;5068232;28;20037;-78
2021/04/14 08:24:53;;;;;;;2.42;2.03;;;;;;;11.83;35.36;97435.19;5066163;28;20052;-78
2021/04/14 08:27:36;;;;;;;1.95;1.80;;;;;;;11.95;33.81;97428.34;5067824;28;20047;-78
2021/04/14 08:30:05;;;;;;;2.63;1.48;;;;;;;12.11;36.37;97435.00;5062153;28;20025;-78
2021/04/14 08:32:42;;;;;;;2.95;1.63;;;;;;;12.01;34.70;97432.81;5060027;28;20040;-78
2021/04/14 08:35:37;;;;;;;3.17;2.00;;;;;;;11.58;33.18;97423.41;5067576;28;20045;-78
2021/04/14 08:38:06;;;;;;;1.77;1.67;;;;;;;10.99;34.02;97429.31;5070477;28;20056;-78
2021/04/14 08:41:03;;;;;;;3.95;1.85;;;;;;;10.82;35.05;97441.16;5057332;28;20043;-78
2021/04/14 08:43:32;;;;;;;1.48;1.38;;;;;;;10.86;34.89;97435.34;5064267;28;20048;-78
2021/04/14 08:46:14;;;;;;;4.13;1.88;;;;;;;11.26;34.56;97434.69;5069920;28;20041;-78
2021/04/14 08:48:46;;;;;;;3.03;2.03;;;;;;;11.39;35.49;97437.34;5054468;28;20049;-78
2021/04/14 08:51:15;;;;;;;3.70;2.17;;;;;;;11.18;35.27;97427.78;5051499;28;20471;-78
2021/04/14 08:53:43;;;;;;;3.75;1.92;;;;;;;11.10;35.40;97438.44;5041729;28;20037;-78
2021/04/14 08:56:10;;;;;;;2.72;1.67;;;;;;;11.11;35.57;97437.47;5044349;28;20044;-78
2021/04/14 08:58:37;;;;;;;3.28;1.85;;;;;;;11.05;35.50;97431.16;5046548;28;20056;-78
2021/04/14 09:01:04;;;;;;;3.90;2.10;;;;;;;10.60;35.53;97427.31;5047019;28;20037;-78
2021/04/14 09:03:38;;;;;;;4.13;2.15;;;;;;;10.11;35.85;97431.63;5020958;28;20064;-79
2021/04/14 09:06:07;;;;;;;3.00;1.92;;;;;;;9.53;36.49;97435.16;5026572;28;20037;-78
2021/04/14 09:08:35;;;;;;;3.40;2.00;;;;;;;9.06;37.19;97440.88;5044773;28;20053;-78
2021/04/14 09:11:05;;;;;;;4.03;1.90;;;;;;;8.73;37.50;97444.72;5044670;28;20045;-78
2021/04/14 09:13:42;;;;;;;3.95;1.98;;;;;;;8.48;38.54;97446.78;5048722;28;20072;-78
2021/04/14 09:16:09;;;;;;;3.85;2.17;;;;;;;8.22;38.49;97448.97;5048055;28;20076;-78
2021/04/14 09:18:40;;;;;;;4.10;2.10;;;;;;;8.08;39.14;97456.63;5038440;28;20041;-78
2021/04/14 09:21:18;;;;;;;3.67;2.38;;;;;;;7.97;39.57;97448.38;5037644;28;20028;-78
2021/04/14 09:24:06;;;;;;;2.45;1.80;;;;;;;7.76;40.11;97449.84;5041468;28;20051;-79
2021/04/14 09:26:37;;;;;;;2.70;2.10;;;;;;;7.50;40.43;97445.78;5025858;28;20421;-78
2021/04/14 09:29:20;;;;;;;4.38;2.13;;;;;;;7.34;40.85;97455.53;5046914;28;20040;-78
2021/04/14 09:31:53;;;;;;;2.83;1.70;;;;;;;7.21;41.12;97456.09;5044771;28;20041;-78
2021/04/14 09:34:22;;;;;;;3.63;2.00;;;;;;;7.17;40.86;97454.81;5046329;28;20413;-78
2021/04/14 09:37:05;;;;;;;5.35;4.43;;;;;;;7.11;41.65;97454.50;5041901;28;20025;-78
2021/04/14 09:39:36;;;;;;;3.60;2.08;;;;;;;7.16;41.06;97451.41;5037905;28;20041;-78
2021/04/14 09:42:27;;;;;;;2.92;2.00;;;;;;;7.21;41.49;97453.47;5047485;28;20389;-78
2021/04/14 09:44:58;;;;;;;5.80;2.15;;;;;;;7.16;41.20;97443.56;5049544;28;20044;-78
2021/04/14 09:47:27;;;;;;;5.70;2.13;;;;;;;7.12;41.01;97442.28;5044226;28;20036;-78
2021/04/14 09:49:58;;;;;;;3.33;1.50;;;;;;;7.13;41.22;97443.91;5044714;28;20048;-78
2021/04/14 09:52:53;;;;;;;2.70;1.77;;;;;;;7.15;41.48;97441.94;5044955;28;20047;-78
2021/04/14 09:55:22;;;;;;;3.93;2.13;;;;;;;7.18;41.40;97444.22;5032420;28;20056;-78
2021/04/14 09:57:50;;;;;;;4.25;1.95;;;;;;;7.19;40.94;97429.38;5046861;28;20037;-78
2021/04/14 10:00:22;;;;;;;2.30;1.38;;;;;;;7.10;40.91;97433.81;5044380;28;20060;-78
2021/04/14 10:02:59;;;;;;;5.25;2.15;;;;;;;7.03;41.14;97435.47;5045660;28;20033;-78
2021/04/14 10:05:31;;;;;;;3.08;2.03;;;;;;;6.98;41.04;97429.97;5037532;28;20041;-78
2021/04/14 10:08:03;;;;;;;5.25;1.80;;;;;;;6.94;41.38;97432.09;5043030;28;20037;-78
2021/04/14 10:10:37;;;;;;;4.32;2.83;;;;;;;7.15;43.52;97400.19;5047446;28;20045;-78
2021/04/14 10:13:10;;;;;;;1.90;1.42;;;;;;;7.13;41.69;97389.13;5030994;28;20391;-78
2021/04/14 10:15:39;;;;;;;2.47;1.80;;;;;;;6.98;41.53;97399.47;5040211;28;20373;-78
2021/04/14 10:18:17;;;;;;;2.53;1.80;;;;;;;6.82;41.42;97384.72;5044769;28;20068;-78
2021/04/14 10:20:43;;;;;;;4.15;2.10;;;;;;;6.64;41.33;97390.19;5046058;28;20037;-78
2021/04/14 10:23:13;;;;;;;2.72;1.67;;;;;;;6.46;41.37;97398.22;5026854;28;20056;-78
2021/04/14 10:25:42;;;;;;;3.70;2.00;;;;;;;6.34;41.65;97396.97;5041534;28;20044;-78
2021/04/14 10:28:22;;;;;;;1.70;1.60;;;;;;;6.25;41.74;97403.19;5039928;28;20044;-78
2021/04/14 10:31:21;;;;;;;2.70;1.77;;;;;;;6.17;42.03;97396.19;5043552;28;20466;-78
2021/04/14 10:33:48;;;;;;;2.13;1.80;;;;;;;6.12;41.92;97400.28;5038053;28;20051;-78
2021/04/14 10:36:22;;;;;;;4.57;1.60;;;;;;;6.06;41.71;97391.34;5044109;28;20037;-78
2021/04/14 10:38:49;;;;;;;2.53;1.80;;;;;;;6.03;41.82;97392.47;5043329;28;20036;-78
2021/04/14 10:41:32;;;;;;;2.35;1.60;;;;;;;5.99;41.38;97388.59;5041284;28;20053;-78
2021/04/14 10:43:58;;;;;;;1.63;1.25;;;;;;;5.97;41.76;97385.34;5040714;28;20037;-78
2021/04/14 10:46:32;;;;;;;2.25;1.42;;;;;;;5.96;41.83;97390.69;5050455;28;20041;-78
2021/04/14 10:49:09;;;;;;;1.98;1.33;;;;;;;5.85;41.48;97392.63;5040134;28;20045;-78
2021/04/14 10:51:48;;;;;;;3.05;1.55;;;;;;;5.78;41.57;97390.88;5043277;28;20041;-77
2021/04/14 10:54:17;;;;;;;2.88;1.70;;;;;;;5.73;41.47;97388.72;5043222;28;20037;-78
2021/04/14 10:56:44;;;;;;;2.58;1.63;;;;;;;5.67;41.63;97377.19;5042813;28;20029;-77
2021/04/14 10:59:14;;;;;;;2.70;1.40;;;;;;;5.69;41.39;97379.63;5043008;28;20477;-77
2021/04/14 11:01:46;;;;;;;2.63;1.38;;;;;;;5.69;41.48;97377.84;5036940;28;20048;-77
2021/04/14 11:04:15;;;;;;;1.40;1.05;;;;;;;5.77;41.30;97368.41;5047769;28;20029;-77
2021/04/14 11:06:43;;;;;;;2.05;1.10;;;;;;;5.85;41.25;97373.59;5043719;28;20033;-77
2021/04/14 11:09:10;;;;;;;1.45;1.30;;;;;;;5.87;41.01;97369.84;5040140;28;20397;-77
2021/04/14 11:11:39;;;;;;;1.80;1.38;;;;;;;5.90;40.88;97366.94;5041666;28;20382;-77
2021/04/14 11:14:08;;;;;;;1.48;1.30;;;;;;;5.99;40.80;97366.94;5045517;28;20037;-77
2021/04/14 11:16:44;;;;;;;2.63;1.55;;;;;;;6.09;39.92;97367.59;5048806;28;20037;-78
2021/04/14 11:19:17;;;;;;;2.58;1.58;;;;;;;6.12;40.37;97356.81;5045693;28;20075;-77
2021/04/14 11:21:44;;;;;;;2.35;1.50;;;;;;;6.18;40.28;97358.75;5041372;28;20041;-76
2021/04/14 11:24:16;;;;;;;3.15;2.10;;;;;;;6.21;40.17;97357.59;5041942;28;20036;-77
2021/04/14 11:27:13;;;;;;;2.00;1.60;;;;;;;6.25;39.65;97345.88;5041517;28;20041;-77
2021/04/14 11:29:39;;;;;;;2.60;1.73;;;;;;;6.27;40.11;97342.09;5029714;28;20052;-77
2021/04/14 11:32:15;;;;;;;2.22;1.52;;;;;;;6.32;39.64;97341.63;5041625;28;20053;-77
2021/04/14 11:34:41;;;;;;;1.80;1.67;;;;;;;6.44;40.07;97342.84;5039329;28;20049;-77
2021/04/14 11:37:23;;;;;;;3.20;2.25;;;;;;;6.51;39.93;97335.19;5045043;28;20033;-77
2021/04/14 11:40:18;;;;;;;3.20;1.98;;;;;;;6.60;39.63;97339.38;5031249;28;20049;-77
2021/04/14 11:42:53;;;;;;;2.35;1.30;;;;;;;6.70;39.76;97336.56;5037663;28;20041;-76
2021/04/14 11:45:27;;;;;;;2.50;1.65;;;;;;;6.71;38.66;97333.78;5041956;28;20462;-77
2021/04/14 11:47:53;;;;;;;2.20;1.50;;;;;;;6.76;39.35;97337.66;5034139;28;20048;-76
2021/04/14 11:50:27;;;;;;;2.75;2.35;;;;;;;6.82;39.26;97329.97;5024786;28;20042;-78
2021/04/14 11:52:57;;;;;;;4.10;2.38;;;;;;;6.87;39.01;97332.06;5031416;28;20049;-78
2021/04/14 11:55:26;;;;;;;2.45;1.75;;;;;;;6.89;38.82;97338.72;5049630;28;20041;-77
2021/04/14 11:57:57;;;;;;;3.38;1.88;;;;;;;6.87;39.57;97340.69;5044425;28;20408;-77
2021/04/14 12:00:44;;;;;;;2.38;1.80;;;;;;;6.81;41.02;97346.59;5036099;28;20033;-77